sensor_id;sensor_type;location;lat;lon;timestamp;pressure;altitude;pressure_sealevel;temperature;humidity
27984;BME280;15317;50.360;8.726;2024-03-06T00:04:22;99601.34;;;5.98;100.00
27984;BME280;15317;50.360;8.726;2024-03-06T00:09:26;99605.25;;;6.05;100.00
27984;BME280;15317;50.360;8.726;2024-03-06T00:14:31;99610.88;;;6.02;100.00
27984;BME280;15317;50.360;8.726;2024-03-06T00:19:34;99615.81;;;5.97;100.00
27984;BME280;15317;50.360;8.726;2024-03-06T00:24:38;99618.38;;;5.98;100.00
27984;BME280;15317;50.360;8.726;2024-03-06T00:29:42;99626.88;;;5.93;100.00
27984;BME280;15317;50.360;8.726;2024-03-06T00:34:45;99631.66;;;5.90;100.00
27984;BME280;15317;50.360;8.726;2024-03-06T00:39:49;99641.81;;;5.86;100.00
27984;BME280;15317;50.360;8.726;2024-03-06T00:44:53;99651.59;;;5.87;100.00
27984;BME280;15317;50.360;8.726;2024-03-06T00:49:57;99642.03;;;5.83;100.00
27984;BME280;15317;50.360;8.726;2024-03-06T00:55:00;99644.28;;;5.78;100.00
27984;BME280;15317;50.360;8.726;2024-03-06T01:00:06;99638.13;;;5.76;100.00
27984;BME280;15317;50.360;8.726;2024-03-06T01:05:13;99657.63;;;5.69;100.00
27984;BME280;15317;50.360;8.726;2024-03-06T01:10:17;99661.44;;;5.66;100.00
27984;BME280;15317;50.360;8.726;2024-03-06T01:15:21;99661.91;;;5.60;100.00
27984;BME280;15317;50.360;8.726;2024-03-06T01:20:25;99662.41;;;5.54;100.00
27984;BME280;15317;50.360;8.726;2024-03-06T01:25:28;99674.31;;;5.51;100.00
27984;BME280;15317;50.360;8.726;2024-03-06T01:30:33;99679.81;;;5.50;100.00
27984;BME280;15317;50.360;8.726;2024-03-06T01:35:36;99683.09;;;5.53;100.00
27984;BME280;15317;50.360;8.726;2024-03-06T01:40:43;99682.25;;;5.53;100.00
27984;BME280;15317;50.360;8.726;2024-03-06T01:45:49;99681.53;;;5.51;100.00
27984;BME280;15317;50.360;8.726;2024-03-06T01:50:53;99685.94;;;5.52;100.00
27984;BME280;15317;50.360;8.726;2024-03-06T01:55:58;99682.63;;;5.48;100.00
27984;BME280;15317;50.360;8.726;2024-03-06T02:01:04;99681.19;;;5.44;100.00
27984;BME280;15317;50.360;8.726;2024-03-06T02:06:07;99678.47;;;5.44;100.00
27984;BME280;15317;50.360;8.726;2024-03-06T02:11:13;99678.13;;;5.38;100.00
27984;BME280;15317;50.360;8.726;2024-03-06T02:16:19;99676.88;;;5.31;100.00
27984;BME280;15317;50.360;8.726;2024-03-06T02:21:24;99678.94;;;5.27;100.00
27984;BME280;15317;50.360;8.726;2024-03-06T02:26:27;99685.56;;;5.23;100.00
27984;BME280;15317;50.360;8.726;2024-03-06T02:31:31;99683.72;;;5.12;100.00
27984;BME280;15317;50.360;8.726;2024-03-06T02:36:38;99690.69;;;5.04;100.00
27984;BME280;15317;50.360;8.726;2024-03-06T02:41:41;99696.69;;;4.96;100.00
27984;BME280;15317;50.360;8.726;2024-03-06T02:46:46;99698.72;;;4.93;100.00
27984;BME280;15317;50.360;8.726;2024-03-06T02:51:51;99695.31;;;4.91;100.00
27984;BME280;15317;50.360;8.726;2024-03-06T02:56:55;99707.66;;;4.93;100.00
27984;BME280;15317;50.360;8.726;2024-03-06T03:01:58;99708.41;;;4.95;100.00
27984;BME280;15317;50.360;8.726;2024-03-06T03:07:03;99700.22;;;4.97;100.00
27984;BME280;15317;50.360;8.726;2024-03-06T03:12:07;99693.50;;;5.02;100.00
27984;BME280;15317;50.360;8.726;2024-03-06T03:17:10;99696.94;;;5.04;100.00
27984;BME280;15317;50.360;8.726;2024-03-06T03:22:16;99694.25;;;5.04;100.00
27984;BME280;15317;50.360;8.726;2024-03-06T03:27:20;99708.94;;;5.11;100.00
27984;BME280;15317;50.360;8.726;2024-03-06T03:32:24;99708.81;;;5.13;100.00
27984;BME280;15317;50.360;8.726;2024-03-06T03:37:29;99704.78;;;5.19;100.00
27984;BME280;15317;50.360;8.726;2024-03-06T03:42:32;99695.59;;;5.21;100.00
27984;BME280;15317;50.360;8.726;2024-03-06T03:47:37;99693.28;;;5.16;100.00
27984;BME280;15317;50.360;8.726;2024-03-06T03:52:41;99697.69;;;5.18;100.00
27984;BME280;15317;50.360;8.726;2024-03-06T03:57:46;99699.63;;;5.15;100.00
27984;BME280;15317;50.360;8.726;2024-03-06T04:02:49;99707.22;;;5.10;100.00
27984;BME280;15317;50.360;8.726;2024-03-06T04:07:54;99727.53;;;5.03;100.00
27984;BME280;15317;50.360;8.726;2024-03-06T04:12:57;99724.09;;;5.01;100.00
27984;BME280;15317;50.360;8.726;2024-03-06T04:18:02;99727.00;;;4.98;100.00
27984;BME280;15317;50.360;8.726;2024-03-06T04:23:07;99736.78;;;4.99;100.00
27984;BME280;15317;50.360;8.726;2024-03-06T04:28:10;99743.16;;;4.98;100.00
27984;BME280;15317;50.360;8.726;2024-03-06T04:33:15;99738.78;;;4.97;100.00
27984;BME280;15317;50.360;8.726;2024-03-06T04:38:19;99740.41;;;5.11;100.00
27984;BME280;15317;50.360;8.726;2024-03-06T04:43:22;99745.84;;;4.98;100.00
27984;BME280;15317;50.360;8.726;2024-03-06T04:48:26;99749.28;;;5.00;100.00
27984;BME280;15317;50.360;8.726;2024-03-06T04:53:31;99763.72;;;4.99;100.00
27984;BME280;15317;50.360;8.726;2024-03-06T04:58:34;99763.31;;;4.93;100.00
27984;BME280;15317;50.360;8.726;2024-03-06T05:03:37;99763.19;;;4.83;100.00
27984;BME280;15317;50.360;8.726;2024-03-06T05:09:00;99767.06;;;4.79;100.00
27984;BME280;15317;50.360;8.726;2024-03-06T05:14:22;99769.72;;;4.68;100.00
27984;BME280;15317;50.360;8.726;2024-03-06T05:19:43;99772.03;;;4.61;100.00
27984;BME280;15317;50.360;8.726;2024-03-06T05:25:06;99782.28;;;4.56;100.00
27984;BME280;15317;50.360;8.726;2024-03-06T05:30:26;99789.59;;;4.54;100.00
27984;BME280;15317;50.360;8.726;2024-03-06T05:35:48;99795.84;;;4.55;100.00
27984;BME280;15317;50.360;8.726;2024-03-06T05:41:10;99806.50;;;4.44;100.00
27984;BME280;15317;50.360;8.726;2024-03-06T05:46:31;99817.53;;;4.41;100.00
27984;BME280;15317;50.360;8.726;2024-03-06T05:51:52;99820.72;;;4.46;100.00
27984;BME280;15317;50.360;8.726;2024-03-06T05:57:14;99823.25;;;4.60;100.00
27984;BME280;15317;50.360;8.726;2024-03-06T06:02:36;99837.34;;;4.63;100.00
27984;BME280;15317;50.360;8.726;2024-03-06T06:07:39;99838.47;;;4.72;100.00
27984;BME280;15317;50.360;8.726;2024-03-06T06:12:43;99845.00;;;4.81;100.00
27984;BME280;15317;50.360;8.726;2024-03-06T06:17:47;99852.72;;;4.85;100.00
27984;BME280;15317;50.360;8.726;2024-03-06T06:22:51;99859.31;;;4.81;100.00
27984;BME280;15317;50.360;8.726;2024-03-06T06:27:55;99866.78;;;4.78;100.00
27984;BME280;15317;50.360;8.726;2024-03-06T06:32:59;99865.47;;;4.83;100.00
27984;BME280;15317;50.360;8.726;2024-03-06T06:38:03;99870.69;;;4.85;100.00
27984;BME280;15317;50.360;8.726;2024-03-06T06:43:08;99877.22;;;4.93;100.00
27984;BME280;15317;50.360;8.726;2024-03-06T06:48:11;99884.84;;;4.99;100.00
27984;BME280;15317;50.360;8.726;2024-03-06T06:53:14;99881.25;;;5.11;100.00
27984;BME280;15317;50.360;8.726;2024-03-06T06:58:19;99890.06;;;5.13;100.00
27984;BME280;15317;50.360;8.726;2024-03-06T07:03:23;99891.31;;;5.21;100.00
27984;BME280;15317;50.360;8.726;2024-03-06T07:08:31;99896.22;;;5.27;100.00
27984;BME280;15317;50.360;8.726;2024-03-06T07:13:36;99904.19;;;5.28;100.00
27984;BME280;15317;50.360;8.726;2024-03-06T07:18:40;99904.94;;;5.30;100.00
27984;BME280;15317;50.360;8.726;2024-03-06T07:23:43;99900.75;;;5.26;100.00
27984;BME280;15317;50.360;8.726;2024-03-06T07:28:48;99906.53;;;5.33;100.00
27984;BME280;15317;50.360;8.726;2024-03-06T07:33:51;99914.63;;;5.33;100.00
27984;BME280;15317;50.360;8.726;2024-03-06T07:38:55;99925.44;;;5.44;100.00
27984;BME280;15317;50.360;8.726;2024-03-06T07:43:59;99939.69;;;5.57;100.00
27984;BME280;15317;50.360;8.726;2024-03-06T07:49:03;99940.28;;;5.84;100.00
27984;BME280;15317;50.360;8.726;2024-03-06T07:54:06;99948.06;;;6.11;100.00
27984;BME280;15317;50.360;8.726;2024-03-06T07:59:13;99958.03;;;6.33;100.00
27984;BME280;15317;50.360;8.726;2024-03-06T08:04:18;99955.84;;;6.60;100.00
27984;BME280;15317;50.360;8.726;2024-03-06T08:09:21;99970.16;;;7.37;100.00
27984;BME280;15317;50.360;8.726;2024-03-06T08:14:27;99960.81;;;9.16;100.00
27984;BME280;15317;50.360;8.726;2024-03-06T08:19:30;99972.59;;;10.03;100.00
27984;BME280;15317;50.360;8.726;2024-03-06T08:24:33;99975.44;;;9.91;100.00
27984;BME280;15317;50.360;8.726;2024-03-06T08:29:38;99983.84;;;9.31;100.00
27984;BME280;15317;50.360;8.726;2024-03-06T08:34:41;99997.25;;;9.32;100.00
27984;BME280;15317;50.360;8.726;2024-03-06T08:39:44;100000.38;;;8.78;100.00
27984;BME280;15317;50.360;8.726;2024-03-06T08:44:48;100003.66;;;8.51;100.00
27984;BME280;15317;50.360;8.726;2024-03-06T08:49:52;100005.31;;;8.43;100.00
27984;BME280;15317;50.360;8.726;2024-03-06T08:54:56;100008.56;;;8.37;100.00
27984;BME280;15317;50.360;8.726;2024-03-06T09:00:01;100016.47;;;8.49;100.00
27984;BME280;15317;50.360;8.726;2024-03-06T09:05:05;100010.47;;;8.46;100.00
27984;BME280;15317;50.360;8.726;2024-03-06T09:10:10;100020.28;;;8.47;100.00
27984;BME280;15317;50.360;8.726;2024-03-06T09:15:15;100025.88;;;8.55;100.00
27984;BME280;15317;50.360;8.726;2024-03-06T09:20:19;100036.53;;;8.47;100.00
27984;BME280;15317;50.360;8.726;2024-03-06T09:25:25;100040.16;;;8.57;100.00
27984;BME280;15317;50.360;8.726;2024-03-06T09:30:32;100027.34;;;8.59;100.00
27984;BME280;15317;50.360;8.726;2024-03-06T09:35:36;100035.47;;;8.59;100.00
27984;BME280;15317;50.360;8.726;2024-03-06T09:40:39;100031.16;;;8.77;100.00
27984;BME280;15317;50.360;8.726;2024-03-06T09:45:48;100031.03;;;8.88;100.00
27984;BME280;15317;50.360;8.726;2024-03-06T09:50:53;100035.47;;;8.89;100.00
27984;BME280;15317;50.360;8.726;2024-03-06T09:56:00;100015.56;;;9.00;100.00
27984;BME280;15317;50.360;8.726;2024-03-06T10:01:05;100009.66;;;9.35;100.00
27984;BME280;15317;50.360;8.726;2024-03-06T10:06:09;100022.69;;;9.41;100.00
27984;BME280;15317;50.360;8.726;2024-03-06T10:11:14;100022.81;;;9.49;100.00
27984;BME280;15317;50.360;8.726;2024-03-06T10:16:20;100021.13;;;9.58;100.00
27984;BME280;15317;50.360;8.726;2024-03-06T10:21:29;100029.44;;;9.75;100.00
27984;BME280;15317;50.360;8.726;2024-03-06T10:26:33;100037.16;;;9.99;100.00
27984;BME280;15317;50.360;8.726;2024-03-06T10:31:38;100033.88;;;10.15;100.00
27984;BME280;15317;50.360;8.726;2024-03-06T10:36:42;100032.31;;;10.22;100.00
27984;BME280;15317;50.360;8.726;2024-03-06T10:41:46;100029.06;;;10.65;100.00
27984;BME280;15317;50.360;8.726;2024-03-06T10:46:58;100036.13;;;10.95;100.00
27984;BME280;15317;50.360;8.726;2024-03-06T10:52:04;100032.31;;;11.42;100.00
27984;BME280;15317;50.360;8.726;2024-03-06T10:57:10;100035.28;;;11.49;100.00
27984;BME280;15317;50.360;8.726;2024-03-06T11:02:15;100038.63;;;11.88;100.00
27984;BME280;15317;50.360;8.726;2024-03-06T11:07:19;100038.09;;;12.20;100.00
27984;BME280;15317;50.360;8.726;2024-03-06T11:12:32;100045.44;;;12.89;100.00
27984;BME280;15317;50.360;8.726;2024-03-06T11:17:37;100048.19;;;12.97;100.00
27984;BME280;15317;50.360;8.726;2024-03-06T11:23:03;100036.91;;;12.40;100.00
27984;BME280;15317;50.360;8.726;2024-03-06T11:28:16;100039.28;;;12.61;100.00
27984;BME280;15317;50.360;8.726;2024-03-06T11:33:21;100050.97;;;12.79;100.00
27984;BME280;15317;50.360;8.726;2024-03-06T11:38:25;100046.09;;;12.65;100.00
27984;BME280;15317;50.360;8.726;2024-03-06T11:43:28;100053.00;;;13.03;100.00
27984;BME280;15317;50.360;8.726;2024-03-06T11:48:34;100049.97;;;12.54;100.00
27984;BME280;15317;50.360;8.726;2024-03-06T11:53:37;100050.88;;;12.19;100.00
27984;BME280;15317;50.360;8.726;2024-03-06T11:58:42;100059.25;;;11.45;100.00
27984;BME280;15317;50.360;8.726;2024-03-06T12:03:50;100059.78;;;11.22;100.00
27984;BME280;15317;50.360;8.726;2024-03-06T12:08:53;100056.59;;;11.26;100.00
27984;BME280;15317;50.360;8.726;2024-03-06T12:13:56;100046.03;;;11.23;100.00
27984;BME280;15317;50.360;8.726;2024-03-06T12:19:01;100050.66;;;11.13;100.00
27984;BME280;15317;50.360;8.726;2024-03-06T12:24:05;100050.63;;;11.23;100.00
27984;BME280;15317;50.360;8.726;2024-03-06T12:29:09;100046.31;;;11.20;100.00
27984;BME280;15317;50.360;8.726;2024-03-06T12:34:15;100062.34;;;11.23;100.00
27984;BME280;15317;50.360;8.726;2024-03-06T12:39:20;100068.72;;;11.04;100.00
27984;BME280;15317;50.360;8.726;2024-03-06T12:44:25;100053.06;;;10.79;100.00
27984;BME280;15317;50.360;8.726;2024-03-06T12:49:30;100061.72;;;10.55;100.00
27984;BME280;15317;50.360;8.726;2024-03-06T12:54:34;100071.13;;;10.51;100.00
27984;BME280;15317;50.360;8.726;2024-03-06T12:59:37;100059.84;;;10.46;100.00
27984;BME280;15317;50.360;8.726;2024-03-06T13:04:42;100067.16;;;10.55;100.00
27984;BME280;15317;50.360;8.726;2024-03-06T13:09:45;100064.13;;;10.58;100.00
27984;BME280;15317;50.360;8.726;2024-03-06T13:14:49;100059.41;;;10.60;100.00
27984;BME280;15317;50.360;8.726;2024-03-06T13:19:53;100053.91;;;10.80;100.00
27984;BME280;15317;50.360;8.726;2024-03-06T13:24:57;100058.69;;;10.68;100.00
27984;BME280;15317;50.360;8.726;2024-03-06T13:30:00;100062.72;;;10.64;100.00
27984;BME280;15317;50.360;8.726;2024-03-06T13:35:08;100059.34;;;10.89;100.00
27984;BME280;15317;50.360;8.726;2024-03-06T13:40:14;100056.03;;;11.32;100.00
27984;BME280;15317;50.360;8.726;2024-03-06T13:45:17;100055.19;;;11.49;100.00
27984;BME280;15317;50.360;8.726;2024-03-06T13:50:22;100058.94;;;11.76;100.00
27984;BME280;15317;50.360;8.726;2024-03-06T13:55:27;100060.50;;;11.69;100.00
27984;BME280;15317;50.360;8.726;2024-03-06T14:00:33;100067.78;;;11.51;100.00
27984;BME280;15317;50.360;8.726;2024-03-06T14:05:39;100070.25;;;11.71;100.00
27984;BME280;15317;50.360;8.726;2024-03-06T14:10:42;100063.06;;;11.53;100.00
27984;BME280;15317;50.360;8.726;2024-03-06T14:15:48;100072.47;;;11.31;100.00
27984;BME280;15317;50.360;8.726;2024-03-06T14:20:52;100076.84;;;11.41;100.00
27984;BME280;15317;50.360;8.726;2024-03-06T14:25:56;100064.56;;;11.37;100.00
27984;BME280;15317;50.360;8.726;2024-03-06T14:30:59;100063.13;;;11.33;100.00
27984;BME280;15317;50.360;8.726;2024-03-06T14:36:04;100064.84;;;11.34;100.00
27984;BME280;15317;50.360;8.726;2024-03-06T14:41:07;100066.06;;;11.22;100.00
27984;BME280;15317;50.360;8.726;2024-03-06T14:46:12;100067.41;;;11.45;100.00
27984;BME280;15317;50.360;8.726;2024-03-06T14:51:16;100059.13;;;11.37;100.00
27984;BME280;15317;50.360;8.726;2024-03-06T14:56:20;100061.53;;;11.40;100.00
27984;BME280;15317;50.360;8.726;2024-03-06T15:01:24;100071.72;;;11.38;100.00
27984;BME280;15317;50.360;8.726;2024-03-06T15:06:29;100079.31;;;11.35;100.00
27984;BME280;15317;50.360;8.726;2024-03-06T15:11:32;100075.22;;;11.21;100.00
27984;BME280;15317;50.360;8.726;2024-03-06T15:16:36;100076.06;;;11.31;100.00
27984;BME280;15317;50.360;8.726;2024-03-06T15:21:41;100081.78;;;11.28;100.00
27984;BME280;15317;50.360;8.726;2024-03-06T15:26:45;100084.59;;;11.09;100.00
27984;BME280;15317;50.360;8.726;2024-03-06T15:31:48;100082.47;;;10.93;100.00
27984;BME280;15317;50.360;8.726;2024-03-06T15:36:53;100079.53;;;10.77;100.00
27984;BME280;15317;50.360;8.726;2024-03-06T15:41:58;100091.19;;;10.50;100.00
27984;BME280;15317;50.360;8.726;2024-03-06T15:47:02;100087.47;;;10.32;100.00
27984;BME280;15317;50.360;8.726;2024-03-06T15:52:13;100084.00;;;10.01;100.00
27984;BME280;15317;50.360;8.726;2024-03-06T15:57:17;100084.38;;;9.77;100.00
27984;BME280;15317;50.360;8.726;2024-03-06T16:02:20;100096.75;;;9.51;100.00
27984;BME280;15317;50.360;8.726;2024-03-06T16:07:27;100096.50;;;9.24;100.00
27984;BME280;15317;50.360;8.726;2024-03-06T16:12:31;100106.38;;;9.25;100.00
27984;BME280;15317;50.360;8.726;2024-03-06T16:17:34;100109.72;;;9.07;100.00
27984;BME280;15317;50.360;8.726;2024-03-06T16:22:38;100120.19;;;8.91;100.00
27984;BME280;15317;50.360;8.726;2024-03-06T16:27:41;100121.84;;;8.83;100.00
27984;BME280;15317;50.360;8.726;2024-03-06T16:32:45;100120.00;;;8.62;100.00
27984;BME280;15317;50.360;8.726;2024-03-06T16:37:49;100122.97;;;8.39;100.00
27984;BME280;15317;50.360;8.726;2024-03-06T16:42:54;100124.22;;;8.23;100.00
27984;BME280;15317;50.360;8.726;2024-03-06T16:47:57;100141.75;;;8.08;100.00
27984;BME280;15317;50.360;8.726;2024-03-06T16:53:03;100133.41;;;8.00;100.00
27984;BME280;15317;50.360;8.726;2024-03-06T16:58:08;100140.88;;;7.76;100.00
27984;BME280;15317;50.360;8.726;2024-03-06T17:03:11;100143.84;;;7.62;100.00
27984;BME280;15317;50.360;8.726;2024-03-06T17:08:16;100145.81;;;7.48;100.00
27984;BME280;15317;50.360;8.726;2024-03-06T17:13:19;100148.38;;;7.39;100.00
27984;BME280;15317;50.360;8.726;2024-03-06T17:18:22;100157.13;;;7.20;100.00
27984;BME280;15317;50.360;8.726;2024-03-06T17:23:27;100161.78;;;7.18;100.00
27984;BME280;15317;50.360;8.726;2024-03-06T17:28:31;100160.91;;;7.06;100.00
27984;BME280;15317;50.360;8.726;2024-03-06T17:33:34;100158.28;;;6.83;100.00
27984;BME280;15317;50.360;8.726;2024-03-06T17:38:39;100167.59;;;6.67;100.00
27984;BME280;15317;50.360;8.726;2024-03-06T17:43:43;100168.53;;;6.55;100.00
27984;BME280;15317;50.360;8.726;2024-03-06T17:48:47;100172.53;;;6.39;100.00
27984;BME280;15317;50.360;8.726;2024-03-06T17:53:53;100185.13;;;6.27;100.00
27984;BME280;15317;50.360;8.726;2024-03-06T17:58:57;100186.47;;;6.09;100.00
27984;BME280;15317;50.360;8.726;2024-03-06T18:04:00;100194.13;;;5.91;100.00
27984;BME280;15317;50.360;8.726;2024-03-06T18:09:04;100195.25;;;5.87;100.00
27984;BME280;15317;50.360;8.726;2024-03-06T18:14:12;100204.91;;;5.78;100.00
27984;BME280;15317;50.360;8.726;2024-03-06T18:19:16;100198.00;;;5.74;100.00
27984;BME280;15317;50.360;8.726;2024-03-06T18:24:21;100197.69;;;5.79;100.00
27984;BME280;15317;50.360;8.726;2024-03-06T18:29:24;100197.56;;;5.80;100.00
27984;BME280;15317;50.360;8.726;2024-03-06T18:34:28;100206.50;;;5.81;100.00
27984;BME280;15317;50.360;8.726;2024-03-06T18:39:32;100211.78;;;5.82;100.00
27984;BME280;15317;50.360;8.726;2024-03-06T18:44:35;100209.53;;;5.76;100.00
27984;BME280;15317;50.360;8.726;2024-03-06T18:49:41;100217.84;;;5.73;100.00
27984;BME280;15317;50.360;8.726;2024-03-06T18:54:45;100214.63;;;5.68;100.00
27984;BME280;15317;50.360;8.726;2024-03-06T18:59:49;100223.81;;;5.53;100.00
27984;BME280;15317;50.360;8.726;2024-03-06T19:04:54;100227.50;;;5.52;100.00
27984;BME280;15317;50.360;8.726;2024-03-06T19:09:59;100223.09;;;5.51;100.00
27984;BME280;15317;50.360;8.726;2024-03-06T19:15:08;100225.47;;;5.43;100.00
27984;BME280;15317;50.360;8.726;2024-03-06T19:20:11;100240.00;;;5.28;100.00
27984;BME280;15317;50.360;8.726;2024-03-06T19:25:16;100233.41;;;5.19;100.00
27984;BME280;15317;50.360;8.726;2024-03-06T19:30:21;100232.13;;;5.12;100.00
27984;BME280;15317;50.360;8.726;2024-03-06T19:35:24;100233.66;;;5.03;100.00
27984;BME280;15317;50.360;8.726;2024-03-06T19:40:29;100229.34;;;5.01;100.00
27984;BME280;15317;50.360;8.726;2024-03-06T19:45:32;100233.66;;;5.03;100.00
27984;BME280;15317;50.360;8.726;2024-03-06T19:50:35;100235.16;;;5.07;100.00
27984;BME280;15317;50.360;8.726;2024-03-06T19:55:40;100236.66;;;4.99;100.00
27984;BME280;15317;50.360;8.726;2024-03-06T20:00:43;100234.53;;;5.04;100.00
27984;BME280;15317;50.360;8.726;2024-03-06T20:05:47;100234.00;;;5.11;100.00
27984;BME280;15317;50.360;8.726;2024-03-06T20:10:52;100242.50;;;5.18;100.00
27984;BME280;15317;50.360;8.726;2024-03-06T20:15:55;100244.84;;;5.23;100.00
27984;BME280;15317;50.360;8.726;2024-03-06T20:20:59;100238.19;;;5.28;100.00
27984;BME280;15317;50.360;8.726;2024-03-06T20:26:03;100231.72;;;5.31;100.00
27984;BME280;15317;50.360;8.726;2024-03-06T20:31:07;100239.47;;;5.23;100.00
27984;BME280;15317;50.360;8.726;2024-03-06T20:36:10;100243.56;;;5.15;100.00
27984;BME280;15317;50.360;8.726;2024-03-06T20:41:15;100236.66;;;4.99;100.00
27984;BME280;15317;50.360;8.726;2024-03-06T20:46:20;100235.47;;;4.90;100.00
27984;BME280;15317;50.360;8.726;2024-03-06T20:51:23;100236.63;;;4.86;100.00
27984;BME280;15317;50.360;8.726;2024-03-06T20:56:27;100242.44;;;4.80;100.00
27984;BME280;15317;50.360;8.726;2024-03-06T21:01:31;100239.41;;;4.72;100.00
27984;BME280;15317;50.360;8.726;2024-03-06T21:06:34;100241.22;;;4.71;100.00
27984;BME280;15317;50.360;8.726;2024-03-06T21:11:40;100235.66;;;4.74;100.00
27984;BME280;15317;50.360;8.726;2024-03-06T21:16:44;100232.72;;;4.65;100.00
27984;BME280;15317;50.360;8.726;2024-03-06T21:21:47;100234.22;;;4.56;100.00
27984;BME280;15317;50.360;8.726;2024-03-06T21:26:51;100230.97;;;4.51;100.00
27984;BME280;15317;50.360;8.726;2024-03-06T21:31:55;100234.81;;;4.34;100.00
27984;BME280;15317;50.360;8.726;2024-03-06T21:36:58;100240.56;;;4.16;100.00
27984;BME280;15317;50.360;8.726;2024-03-06T21:42:03;100244.47;;;4.10;100.00
27984;BME280;15317;50.360;8.726;2024-03-06T21:47:07;100249.69;;;3.99;100.00
27984;BME280;15317;50.360;8.726;2024-03-06T21:52:11;100254.44;;;3.95;100.00
27984;BME280;15317;50.360;8.726;2024-03-06T21:57:18;100251.63;;;3.97;100.00
27984;BME280;15317;50.360;8.726;2024-03-06T22:02:21;100247.09;;;3.97;100.00
27984;BME280;15317;50.360;8.726;2024-03-06T22:07:24;100247.56;;;4.04;100.00
27984;BME280;15317;50.360;8.726;2024-03-06T22:12:29;100250.63;;;4.12;100.00
27984;BME280;15317;50.360;8.726;2024-03-06T22:17:32;100239.47;;;4.18;100.00
27984;BME280;15317;50.360;8.726;2024-03-06T22:22:35;100248.50;;;4.17;100.00
27984;BME280;15317;50.360;8.726;2024-03-06T22:27:40;100244.44;;;4.24;100.00
27984;BME280;15317;50.360;8.726;2024-03-06T22:32:44;100238.00;;;4.27;100.00
27984;BME280;15317;50.360;8.726;2024-03-06T22:37:48;100245.16;;;4.41;100.00
27984;BME280;15317;50.360;8.726;2024-03-06T22:42:52;100246.25;;;4.51;100.00
27984;BME280;15317;50.360;8.726;2024-03-06T22:47:56;100250.88;;;4.88;100.00
27984;BME280;15317;50.360;8.726;2024-03-06T22:52:59;100243.56;;;5.03;100.00
27984;BME280;15317;50.360;8.726;2024-03-06T22:58:05;100246.78;;;5.21;100.00
27984;BME280;15317;50.360;8.726;2024-03-06T23:03:09;100249.38;;;5.22;100.00
27984;BME280;15317;50.360;8.726;2024-03-06T23:08:12;100249.91;;;5.27;100.00
27984;BME280;15317;50.360;8.726;2024-03-06T23:13:16;100244.09;;;5.21;100.00
27984;BME280;15317;50.360;8.726;2024-03-06T23:18:20;100242.69;;;5.02;100.00
27984;BME280;15317;50.360;8.726;2024-03-06T23:23:23;100250.78;;;5.02;100.00
27984;BME280;15317;50.360;8.726;2024-03-06T23:28:30;100247.75;;;5.07;100.00
27984;BME280;15317;50.360;8.726;2024-03-06T23:33:33;100245.28;;;5.16;100.00
27984;BME280;15317;50.360;8.726;2024-03-06T23:38:37;100258.22;;;5.24;100.00
27984;BME280;15317;50.360;8.726;2024-03-06T23:43:41;100251.75;;;5.01;100.00
27984;BME280;15317;50.360;8.726;2024-03-06T23:48:45;100258.41;;;4.83;100.00
27984;BME280;15317;50.360;8.726;2024-03-06T23:53:48;100254.31;;;4.78;100.00
27984;BME280;15317;50.360;8.726;2024-03-06T23:58:53;100246.06;;;4.66;100.00
